Time;durP1;ratioP1;P1;durP2;ratioP2;P2;SDS_P1;SDS_P2;PMS_P1;PMS_P2;Temp;Humidity;BMP_temperature;BMP_pressure;BME280_temperature;BME280_humidity;BME280_pressure;Samples;Min_cycle;Max_cycle;Signal;HPM_P1;HPM_P2
2022/09/21 00:00:29;;;;;;;9.20;3.60;;;;;;;8.57;100.00;97302.16;4995337;28;20030;-67
2022/09/21 00:02:56;;;;;;;9.70;4.40;;;;;;;8.59;100.00;97304.56;5014852;28;20029;-68
2022/09/21 00:05:22;;;;;;;9.75;3.70;;;;;;;8.66;100.00;97307.53;5031601;28;20041;-65
2022/09/21 00:07:48;;;;;;;20.70;9.73;;;;;;;8.73;100.00;97298.75;5031863;28;20063;-67
2022/09/21 00:10:13;;;;;;;10.90;3.85;;;;;;;8.76;100.00;97298.88;4998124;28;20065;-67
2022/09/21 00:12:39;;;;;;;8.85;2.95;;;;;;;8.74;100.00;97290.22;5029046;28;20076;-67
2022/09/21 00:15:07;;;;;;;10.75;3.17;;;;;;;8.77;100.00;97303.22;5031485;28;20437;-67
2022/09/21 00:17:33;;;;;;;7.40;2.88;;;;;;;8.78;100.00;97299.31;5015187;28;20072;-66
2022/09/21 00:20:04;;;;;;;6.00;2.90;;;;;;;8.79;100.00;97305.59;5016757;28;20110;-66
2022/09/21 00:22:30;;;;;;;8.02;2.83;;;;;;;8.77;100.00;97302.44;5011863;28;20040;-68
2022/09/21 00:24:55;;;;;;;9.75;3.00;;;;;;;8.80;100.00;97299.00;5010678;28;20037;-67
2022/09/21 00:27:21;;;;;;;11.60;3.38;;;;;;;8.84;100.00;97299.94;5019720;28;20501;-68
2022/09/21 00:29:47;;;;;;;9.30;3.55;;;;;;;8.84;100.00;97301.84;5011751;28;20550;-68
2022/09/21 00:32:14;;;;;;;12.25;3.45;;;;;;;8.85;100.00;97303.44;5019018;28;20481;-66
2022/09/21 00:34:40;;;;;;;6.30;3.00;;;;;;;8.92;100.00;97298.22;5017288;28;20030;-69
2022/09/21 00:37:08;;;;;;;10.13;2.63;;;;;;;8.89;100.00;97293.44;5014888;28;20407;-66
2022/09/21 00:39:33;;;;;;;10.73;3.40;;;;;;;8.87;100.00;97293.75;5015166;28;20030;-67
2022/09/21 00:41:59;;;;;;;5.47;3.08;;;;;;;8.89;100.00;97294.22;5034607;28;20072;-66
2022/09/21 00:44:31;;;;;;;8.63;2.97;;;;;;;8.86;100.00;97296.84;5016985;28;20037;-65
2022/09/21 00:47:05;;;;;;;14.38;3.92;;;;;;;8.88;100.00;97300.03;5003035;28;20037;-66
2022/09/21 00:49:32;;;;;;;8.27;2.90;;;;;;;8.74;100.00;97300.38;5016813;28;20105;-67
2022/09/21 00:52:03;;;;;;;9.70;3.25;;;;;;;8.67;100.00;97292.72;5014725;28;20436;-66
2022/09/21 00:54:35;;;;;;;8.65;3.05;;;;;;;8.59;100.00;97288.19;5015059;28;20594;-67
2022/09/21 00:57:02;;;;;;;9.32;3.25;;;;;;;8.58;100.00;97286.56;5014623;28;20036;-66
2022/09/21 00:59:32;;;;;;;7.55;3.17;;;;;;;8.53;100.00;97284.06;4997046;28;20398;-66
2022/09/21 01:01:58;;;;;;;7.18;3.00;;;;;;;8.46;100.00;97290.06;4999583;28;20478;-65
2022/09/21 01:04:25;;;;;;;8.95;3.50;;;;;;;8.40;100.00;97281.25;5034170;28;20029;-65
2022/09/21 01:06:51;;;;;;;9.18;3.17;;;;;;;8.39;100.00;97287.88;5034099;28;20040;-67
2022/09/21 01:09:17;;;;;;;12.32;3.42;;;;;;;8.32;100.00;97289.53;5034946;28;20025;-65
2022/09/21 01:12:18;;;;;;;14.43;3.28;;;;;;;8.24;100.00;97285.78;5035085;28;20033;-66
2022/09/21 01:15:04;;;;;;;8.77;3.63;;;;;;;8.22;100.00;97283.38;5024948;28;20041;-65
2022/09/21 01:18:02;;;;;;;12.60;3.83;;;;;;;8.15;100.00;97282.34;5022409;28;20048;-66
2022/09/21 01:20:48;;;;;;;6.53;3.65;;;;;;;8.07;100.00;97284.03;5006532;28;20621;-65
2022/09/21 01:23:32;;;;;;;9.50;4.00;;;;;;;8.01;100.00;97278.00;5020838;28;20075;-65
2022/09/21 01:26:20;;;;;;;17.27;4.47;;;;;;;7.93;100.00;97280.78;4994498;28;20030;-66
2022/09/21 01:29:04;;;;;;;10.05;4.13;;;;;;;7.86;100.00;97284.06;5001322;28;20060;-64
2022/09/21 01:31:38;;;;;;;9.68;4.30;;;;;;;7.93;100.00;97275.34;4996577;28;20514;-65
2022/09/21 01:34:19;;;;;;;11.95;4.18;;;;;;;7.91;100.00;97266.69;5014191;28;20430;-64
2022/09/21 01:36:48;;;;;;;7.38;4.10;;;;;;;7.90;100.00;97271.34;5012841;28;20092;-66
2022/09/21 01:39:17;;;;;;;6.83;3.77;;;;;;;7.81;100.00;97276.88;4999401;28;20049;-64
2022/09/21 01:41:45;;;;;;;10.40;4.67;;;;;;;7.79;100.00;97281.84;5033609;28;20292;-66
2022/09/21 01:44:17;;;;;;;8.35;4.13;;;;;;;7.79;100.00;97276.41;5033763;28;20372;-66
2022/09/21 01:46:45;;;;;;;8.23;3.75;;;;;;;7.71;100.00;97274.56;5032187;28;20482;-67
2022/09/21 01:49:15;;;;;;;13.38;4.13;;;;;;;7.66;100.00;97272.03;5033369;28;20033;-65
2022/09/21 01:51:47;;;;;;;9.27;3.83;;;;;;;7.63;100.00;97269.97;4989609;28;20112;-66
2022/09/21 01:54:21;;;;;;;7.95;3.88;;;;;;;7.70;100.00;97269.44;5021730;28;20030;-66
2022/09/21 01:57:11;;;;;;;10.15;4.13;;;;;;;7.61;100.00;97269.50;5013392;28;20077;-67
2022/09/21 01:59:48;;;;;;;12.60;4.10;;;;;;;7.53;100.00;97273.13;5013612;28;20022;-65
2022/09/21 02:02:19;;;;;;;11.13;4.15;;;;;;;7.65;100.00;97264.97;5013412;28;20085;-65
2022/09/21 02:04:45;;;;;;;12.13;3.60;;;;;;;7.64;100.00;97269.63;5021557;28;20041;-68
2022/09/21 02:07:10;;;;;;;14.10;4.20;;;;;;;7.55;100.00;97266.19;4995158;28;20446;-65
2022/09/21 02:09:37;;;;;;;12.10;4.05;;;;;;;7.63;100.00;97265.34;4995697;28;20029;-67
2022/09/21 02:12:03;;;;;;;12.10;3.72;;;;;;;7.62;100.00;97276.56;4997811;28;20422;-67
2022/09/21 02:14:32;;;;;;;11.85;3.65;;;;;;;7.73;100.00;97263.31;5036304;28;20033;-68
2022/09/21 02:17:06;;;;;;;8.38;4.28;;;;;;;7.76;100.00;97271.63;5036607;28;20025;-68
2022/09/21 02:20:05;;;;;;;9.52;3.90;;;;;;;7.71;100.00;97262.88;5021308;28;20037;-66
2022/09/21 02:22:53;;;;;;;10.30;3.58;;;;;;;7.61;100.00;97259.38;4995526;28;20034;-67
2022/09/21 02:25:50;;;;;;;10.48;3.10;;;;;;;7.73;100.00;97252.41;5013108;28;20125;-67
2022/09/21 02:28:16;;;;;;;9.65;3.58;;;;;;;7.69;100.00;97255.03;4989665;28;20045;-68
2022/09/21 02:30:50;;;;;;;9.70;4.45;;;;;;;7.73;100.00;97255.94;5012311;28;20072;-68
2022/09/21 02:33:28;;;;;;;12.82;5.10;;;;;;;7.75;100.00;97259.13;5022383;28;20093;-67
2022/09/21 02:35:57;;;;;;;9.60;3.45;;;;;;;7.70;100.00;97259.31;5018197;28;20151;-67
2022/09/21 02:38:34;;;;;;;10.93;3.50;;;;;;;7.64;100.00;97261.47;5015766;28;20487;-66
2022/09/21 02:41:12;;;;;;;10.88;3.55;;;;;;;7.63;100.00;97257.16;5013315;28;20056;-67
2022/09/21 02:44:07;;;;;;;11.48;3.63;;;;;;;7.58;100.00;97254.63;5013124;28;20093;-68
2022/09/21 02:47:08;;;;;;;11.98;4.20;;;;;;;7.56;100.00;97256.06;5020896;28;20531;-68
2022/09/21 02:49:37;;;;;;;12.40;3.50;;;;;;;7.49;100.00;97258.53;4970809;28;20052;-67
2022/09/21 02:52:10;;;;;;;6.20;3.22;;;;;;;7.45;100.00;97252.94;5014037;28;20044;-67
2022/09/21 02:54:39;;;;;;;9.63;3.67;;;;;;;7.43;100.00;97252.50;5015000;28;20034;-68
2022/09/21 02:57:05;;;;;;;9.13;3.67;;;;;;;7.40;100.00;97261.31;5013277;28;20022;-68
2022/09/21 02:59:31;;;;;;;10.05;3.85;;;;;;;7.42;100.00;97256.34;5012935;28;20082;-68
2022/09/21 03:01:57;;;;;;;8.07;3.28;;;;;;;7.41;100.00;97255.53;5021121;28;20433;-67
2022/09/21 03:04:23;;;;;;;9.80;3.60;;;;;;;7.37;100.00;97251.91;5013918;28;20426;-67
2022/09/21 03:06:49;;;;;;;7.88;3.83;;;;;;;7.38;100.00;97252.69;5014568;28;20034;-68
2022/09/21 03:09:14;;;;;;;12.32;4.38;;;;;;;7.40;100.00;97253.97;5014175;28;20036;-66
2022/09/21 03:11:42;;;;;;;7.40;3.25;;;;;;;7.39;100.00;97246.13;4995705;28;20037;-65
2022/09/21 03:14:08;;;;;;;8.77;3.30;;;;;;;7.39;100.00;97243.38;5012987;28;20037;-66
2022/09/21 03:16:34;;;;;;;8.10;3.70;;;;;;;7.28;100.00;97249.22;5021114;28;20030;-66
2022/09/21 03:19:00;;;;;;;8.88;3.25;;;;;;;7.26;100.00;97248.75;5012455;28;20030;-68
2022/09/21 03:21:26;;;;;;;10.35;3.47;;;;;;;7.26;100.00;97248.75;5011122;28;20121;-67
2022/09/21 03:23:51;;;;;;;8.27;3.08;;;;;;;7.28;100.00;97251.16;5012539;28;20038;-67
2022/09/21 03:26:21;;;;;;;5.93;3.22;;;;;;;7.35;100.00;97253.38;5027181;28;20042;-66
2022/09/21 03:28:51;;;;;;;8.13;3.17;;;;;;;7.35;100.00;97256.88;5034468;28;20017;-67
2022/09/21 03:31:16;;;;;;;12.57;3.17;;;;;;;7.43;100.00;97256.00;5016866;28;20037;-66
2022/09/21 03:33:42;;;;;;;9.15;3.03;;;;;;;7.36;100.00;97261.19;5035925;28;20375;-65
2022/09/21 03:36:07;;;;;;;8.57;3.17;;;;;;;7.30;100.00;97248.09;5032697;28;20501;-66
2022/09/21 03:38:33;;;;;;;13.07;3.22;;;;;;;7.31;100.00;97255.13;5032347;28;20037;-66
2022/09/21 03:40:59;;;;;;;9.77;3.50;;;;;;;7.31;100.00;97261.41;5013954;28;20028;-65
2022/09/21 03:43:25;;;;;;;12.18;3.10;;;;;;;7.36;100.00;97255.72;5016571;28;20415;-68
2022/09/21 03:45:50;;;;;;;15.73;3.72;;;;;;;7.50;100.00;97260.13;5020873;28;20112;-67
2022/09/21 03:48:16;;;;;;;10.75;3.58;;;;;;;7.44;100.00;97263.06;4996883;28;20487;-66
2022/09/21 03:50:42;;;;;;;7.75;3.33;;;;;;;7.42;100.00;97259.88;5013037;28;20026;-65
2022/09/21 03:53:08;;;;;;;6.32;2.88;;;;;;;7.47;100.00;97264.31;4979577;28;20030;-66
2022/09/21 03:55:33;;;;;;;6.95;2.88;;;;;;;7.50;100.00;97260.13;5012304;28;20350;-67
2022/09/21 03:57:59;;;;;;;8.15;2.95;;;;;;;7.55;100.00;97257.22;5027734;28;20066;-66
2022/09/21 04:00:25;;;;;;;7.35;3.17;;;;;;;7.49;100.00;97256.63;5025256;28;20070;-66
2022/09/21 04:02:51;;;;;;;15.13;3.35;;;;;;;7.43;100.00;97257.94;5022538;28;20108;-67
2022/09/21 04:05:16;;;;;;;9.50;3.17;;;;;;;7.41;100.00;97261.00;5012712;28;20034;-65
2022/09/21 04:07:44;;;;;;;8.75;3.30;;;;;;;7.43;100.00;97261.44;5012291;28;20138;-65
2022/09/21 04:10:12;;;;;;;14.57;3.63;;;;;;;7.31;100.00;97261.41;5012841;28;20034;-65
2022/09/21 04:12:42;;;;;;;8.55;3.72;;;;;;;7.28;100.00;97256.59;5023670;28;20038;-66
2022/09/21 04:15:18;;;;;;;13.18;3.97;;;;;;;7.15;100.00;97265.81;5015800;28;20030;-65
2022/09/21 04:17:49;;;;;;;10.48;3.88;;;;;;;7.07;100.00;97270.19;4998393;28;20066;-66
2022/09/21 04:20:15;;;;;;;10.85;3.72;;;;;;;7.04;100.00;97265.41;5015241;28;20081;-67
2022/09/21 04:22:40;;;;;;;13.75;4.43;;;;;;;6.99;100.00;97268.34;5023343;28;20038;-67
2022/09/21 04:25:06;;;;;;;10.82;3.85;;;;;;;6.93;100.00;97278.59;5014449;28;20033;-66
2022/09/21 04:27:32;;;;;;;8.85;4.20;;;;;;;6.90;100.00;97273.81;5015301;28;20033;-67
2022/09/21 04:29:59;;;;;;;7.88;3.75;;;;;;;6.81;100.00;97273.06;5015741;28;20387;-65
2022/09/21 04:32:24;;;;;;;11.73;3.97;;;;;;;6.81;100.00;97273.88;5015978;28;20045;-66
2022/09/21 04:34:50;;;;;;;10.55;4.07;;;;;;;6.80;100.00;97280.41;5016364;28;20034;-67
2022/09/21 04:37:15;;;;;;;11.10;3.75;;;;;;;6.70;100.00;97275.38;5024236;28;20449;-66
2022/09/21 04:39:41;;;;;;;11.57;3.97;;;;;;;6.69;100.00;97288.16;5015805;28;20042;-67
2022/09/21 04:42:07;;;;;;;11.40;4.07;;;;;;;6.64;100.00;97279.38;5021202;28;20053;-68
2022/09/21 04:44:32;;;;;;;11.98;4.38;;;;;;;6.64;100.00;97282.09;5039049;28;20026;-67
2022/09/21 04:46:58;;;;;;;11.07;4.07;;;;;;;6.56;100.00;97288.38;5039201;28;20387;-66
2022/09/21 04:49:24;;;;;;;9.70;4.32;;;;;;;6.60;100.00;97281.16;5026013;28;20042;-67
2022/09/21 04:51:49;;;;;;;9.48;3.92;;;;;;;6.56;100.00;97280.22;5025654;28;20036;-67
2022/09/21 04:54:15;;;;;;;12.15;3.97;;;;;;;6.50;100.00;97280.41;5017970;28;20034;-66
2022/09/21 04:56:41;;;;;;;13.13;4.53;;;;;;;6.47;100.00;97285.69;5034664;28;20033;-65
2022/09/21 04:59:06;;;;;;;12.43;4.47;;;;;;;6.54;100.00;97293.38;5034866;28;20034;-67
2022/09/21 05:01:32;;;;;;;14.43;4.32;;;;;;;6.41;100.00;97295.13;5021788;28;20105;-66
2022/09/21 05:04:00;;;;;;;12.40;4.68;;;;;;;6.35;100.00;97299.97;5023656;28;20040;-65
2022/09/21 05:06:30;;;;;;;10.55;5.15;;;;;;;6.37;100.00;97292.28;4997416;28;20033;-65
2022/09/21 05:11:40;;;;;;;11.82;5.18;;;;;;;6.34;100.00;97300.28;5015065;28;20079;-67
2022/09/21 05:14:06;;;;;;;10.63;4.68;;;;;;;6.36;100.00;97301.56;5015845;28;20037;-66
2022/09/21 05:16:31;;;;;;;11.85;4.78;;;;;;;6.39;100.00;97297.38;4998705;28;20034;-67
2022/09/21 05:18:56;;;;;;;12.82;5.32;;;;;;;6.31;100.00;97301.75;5020754;28;20041;-66
2022/09/21 05:21:22;;;;;;;10.88;4.47;;;;;;;6.45;100.00;97302.34;5016218;28;20030;-67
2022/09/21 05:23:48;;;;;;;10.13;4.75;;;;;;;6.52;100.00;97290.97;5019188;28;20038;-66
2022/09/21 05:26:13;;;;;;;13.82;4.80;;;;;;;6.76;100.00;97303.19;5002288;28;20053;-65
2022/09/21 05:28:39;;;;;;;13.20;5.30;;;;;;;6.78;100.00;97303.66;4996285;28;20042;-66
2022/09/21 05:31:19;;;;;;;8.25;4.57;;;;;;;6.94;100.00;97303.91;5018689;28;20748;-66
2022/09/21 05:33:50;;;;;;;;;;;;;;;7.03;100.00;97301.94;5034777;28;20037;-65
2022/09/21 05:36:48;;;;;;;7.18;4.53;;;;;;;6.97;100.00;97300.53;5031760;28;19913;-68
2022/09/21 05:39:14;;;;;;;8.75;5.30;;;;;;;7.21;100.00;97305.38;5017922;28;20033;-66
2022/09/21 05:41:40;;;;;;;8.73;4.78;;;;;;;7.14;100.00;97310.53;5016268;28;20045;-68
2022/09/21 05:44:06;;;;;;;9.35;4.65;;;;;;;7.27;100.00;97299.41;5015293;28;20105;-66
2022/09/21 05:46:38;;;;;;;8.93;4.53;;;;;;;7.16;100.00;97306.34;5022328;28;20030;-66
2022/09/21 05:49:19;;;;;;;14.90;4.85;;;;;;;7.36;100.00;97312.16;5006830;28;20028;-67
2022/09/21 05:51:57;;;;;;;10.60;4.43;;;;;;;7.59;100.00;97310.72;5036381;28;20033;-66
2022/09/21 05:55:01;;;;;;;10.95;4.57;;;;;;;8.02;100.00;97311.50;5021458;28;20383;-65
2022/09/21 05:57:45;;;;;;;10.93;4.85;;;;;;;7.82;100.00;97319.38;4994086;28;20510;-66
2022/09/21 06:00:21;;;;;;;8.90;4.18;;;;;;;7.95;100.00;97312.03;4995793;28;20041;-66
2022/09/21 06:03:24;;;;;;;9.85;4.30;;;;;;;7.73;100.00;97310.47;4993927;28;20038;-66
2022/09/21 06:05:49;;;;;;;12.07;4.30;;;;;;;7.87;100.00;97317.56;4992682;28;20026;-65
2022/09/21 06:08:15;;;;;;;9.95;5.05;;;;;;;8.06;100.00;97314.38;5017148;28;20041;-67
2022/09/21 06:10:40;;;;;;;11.32;4.53;;;;;;;8.10;100.00;97313.34;5000834;28;20097;-68
2022/09/21 06:13:06;;;;;;;10.30;4.20;;;;;;;8.41;100.00;97320.31;5016763;28;20030;-65
2022/09/21 06:15:37;;;;;;;7.40;4.05;;;;;;;8.76;100.00;97319.94;5031432;28;20085;-65
2022/09/21 06:18:06;;;;;;;8.45;4.10;;;;;;;8.58;100.00;97317.41;5030696;28;20029;-67
2022/09/21 06:20:32;;;;;;;8.73;3.80;;;;;;;8.73;100.00;97318.69;5015165;28;20026;-66
2022/09/21 06:23:09;;;;;;;12.90;3.88;;;;;;;8.73;100.00;97324.16;5001929;28;20025;-66
2022/09/21 06:25:35;;;;;;;10.10;3.92;;;;;;;8.98;100.00;97316.78;5016605;28;20419;-66
2022/09/21 06:28:03;;;;;;;16.58;5.13;;;;;;;9.22;100.00;97323.38;5013510;28;20026;-66
2022/09/21 06:30:29;;;;;;;11.07;3.75;;;;;;;9.24;100.00;97318.38;5014240;28;20081;-66
2022/09/21 06:32:59;;;;;;;11.18;3.38;;;;;;;9.23;100.00;97319.50;4978441;28;20033;-65
2022/09/21 06:35:24;;;;;;;9.18;3.55;;;;;;;9.30;100.00;97316.97;5012424;28;20034;-67
2022/09/21 06:37:50;;;;;;;13.23;3.78;;;;;;;9.29;100.00;97322.78;5012529;28;20052;-66
2022/09/21 06:40:15;;;;;;;9.85;3.05;;;;;;;9.60;100.00;97318.66;5008529;28;20070;-69
2022/09/21 06:42:41;;;;;;;9.32;3.20;;;;;;;9.76;100.00;97314.06;4975535;28;20030;-68
2022/09/21 06:45:07;;;;;;;9.93;3.28;;;;;;;10.04;100.00;97316.81;4969939;28;20660;-67
2022/09/21 06:47:32;;;;;;;8.70;3.20;;;;;;;9.90;100.00;97324.63;5003437;28;20046;-68
2022/09/21 06:49:58;;;;;;;7.90;3.45;;;;;;;9.97;98.94;97311.13;4985522;28;20050;-67
2022/09/21 06:52:23;;;;;;;7.93;2.90;;;;;;;10.01;100.00;97313.97;4981147;28;20528;-66
2022/09/21 06:54:49;;;;;;;7.60;2.88;;;;;;;9.90;100.00;97321.88;4993157;28;20095;-68
2022/09/21 06:57:14;;;;;;;7.60;2.70;;;;;;;10.06;100.00;97319.22;5018612;28;20362;-68
2022/09/21 06:59:39;;;;;;;7.13;2.65;;;;;;;10.40;98.77;97319.78;4986289;28;20128;-66
2022/09/21 07:02:05;;;;;;;6.63;2.58;;;;;;;10.46;97.03;97313.72;5006744;28;20553;-67
2022/09/21 07:04:31;;;;;;;4.97;2.53;;;;;;;10.24;97.92;97317.75;5009462;28;20430;-67
2022/09/21 07:06:57;;;;;;;7.18;2.75;;;;;;;10.25;99.45;97319.38;4992804;28;20055;-66
2022/09/21 07:09:23;;;;;;;5.63;2.53;;;;;;;10.09;97.82;97313.06;4971581;28;20514;-66
2022/09/21 07:11:49;;;;;;;6.07;2.40;;;;;;;10.27;98.60;97328.03;4973095;28;20106;-66
2022/09/21 07:14:14;;;;;;;6.45;2.38;;;;;;;10.56;94.62;97312.38;5002688;28;20051;-67
2022/09/21 07:16:40;;;;;;;8.30;3.00;;;;;;;10.29;95.79;97330.41;4977922;28;20113;-68
2022/09/21 07:19:05;;;;;;;7.90;2.75;;;;;;;10.34;97.63;97324.72;5004115;28;20042;-67
2022/09/21 07:21:31;;;;;;;6.00;2.50;;;;;;;10.60;96.91;97324.22;5008036;28;20118;-67
2022/09/21 07:24:00;;;;;;;8.13;2.80;;;;;;;11.03;93.92;97325.31;5007612;28;20060;-68
2022/09/21 07:26:26;;;;;;;9.45;3.03;;;;;;;10.63;92.49;97320.00;4999650;28;20069;-67
2022/09/21 07:28:51;;;;;;;5.13;1.95;;;;;;;11.22;94.25;97329.31;5008247;28;20739;-68
2022/09/21 07:31:17;;;;;;;7.38;2.80;;;;;;;11.21;89.87;97335.91;4999836;28;20074;-67
2022/09/21 07:33:45;;;;;;;5.93;2.20;;;;;;;11.20;90.62;97337.06;5007857;28;20610;-68
2022/09/21 07:36:11;;;;;;;8.95;2.78;;;;;;;11.35;91.11;97332.72;5002774;28;20072;-68
2022/09/21 07:38:41;;;;;;;8.30;2.80;;;;;;;11.28;89.93;97344.31;5021987;28;20049;-67
2022/09/21 07:41:09;;;;;;;6.65;2.53;;;;;;;11.13;91.73;97342.38;4998860;28;20049;-69
2022/09/21 07:43:38;;;;;;;7.63;2.60;;;;;;;11.39;91.23;97339.09;5004172;28;20048;-67
2022/09/21 07:46:04;;;;;;;6.53;2.88;;;;;;;11.16;90.93;97339.72;4968401;28;20049;-66
2022/09/21 07:48:29;;;;;;;6.78;2.45;;;;;;;11.82;88.57;97340.84;4997162;28;20042;-68
2022/09/21 07:51:03;;;;;;;6.13;2.17;;;;;;;11.78;88.60;97337.22;5001904;28;20042;-67
2022/09/21 07:53:28;;;;;;;4.65;2.30;;;;;;;11.69;88.47;97335.84;4982062;28;20048;-68
2022/09/21 07:56:00;;;;;;;6.80;2.28;;;;;;;11.73;87.61;97343.00;5002225;28;20038;-66
2022/09/21 08:01:09;;;;;;;7.43;2.10;;;;;;;11.96;86.61;97339.59;4978919;28;20045;-68
2022/09/21 08:03:34;;;;;;;13.20;2.55;;;;;;;11.77;86.56;97335.63;5002575;28;20045;-68
2022/09/21 08:06:00;;;;;;;6.97;2.40;;;;;;;12.21;84.11;97335.41;5001616;28;20042;-68
2022/09/21 08:08:25;;;;;;;6.68;1.98;;;;;;;12.45;82.30;97333.50;4997155;28;20046;-68
2022/09/21 08:10:52;;;;;;;6.90;2.40;;;;;;;11.88;86.11;97335.06;5001897;28;20042;-67
2022/09/21 08:13:17;;;;;;;8.85;2.53;;;;;;;12.26;85.00;97326.06;5005916;28;20070;-68
2022/09/21 08:15:42;;;;;;;7.35;2.50;;;;;;;12.58;82.42;97336.88;4968716;28;20069;-68
2022/09/21 08:18:08;;;;;;;6.50;1.95;;;;;;;12.30;82.85;97337.13;5011593;28;20056;-68
2022/09/21 08:20:33;;;;;;;8.23;2.40;;;;;;;12.15;84.54;97328.59;5003899;28;20430;-66
2022/09/21 08:22:59;;;;;;;6.88;2.55;;;;;;;12.54;83.31;97331.31;5022129;28;20042;-67
2022/09/21 08:25:25;;;;;;;6.93;2.03;;;;;;;12.79;82.89;97339.25;5011224;28;20421;-67
2022/09/21 08:27:50;;;;;;;6.10;2.10;;;;;;;12.77;80.96;97328.59;5006810;28;20077;-66
2022/09/21 08:30:16;;;;;;;7.63;2.20;;;;;;;13.68;78.30;97325.34;4995437;28;20045;-68
2022/09/21 08:32:41;;;;;;;10.40;2.38;;;;;;;13.23;79.68;97325.03;5005093;28;20045;-67
2022/09/21 08:35:08;;;;;;;3.90;1.98;;;;;;;12.79;80.42;97325.50;4980954;28;20048;-68
2022/09/21 08:37:35;;;;;;;5.10;2.35;;;;;;;13.16;83.18;97334.00;4985193;28;20050;-67
2022/09/21 08:40:02;;;;;;;7.35;1.92;;;;;;;13.62;78.31;97327.63;5006940;28;20042;-67
2022/09/21 08:42:31;;;;;;;3.75;1.90;;;;;;;13.76;77.08;97327.03;5014382;28;20049;-68
2022/09/21 08:45:03;;;;;;;6.07;2.10;;;;;;;13.28;79.50;97327.47;5004984;28;20042;-68
2022/09/21 08:47:48;;;;;;;4.60;2.00;;;;;;;13.44;75.66;97330.13;5018771;28;20061;-68
2022/09/21 08:50:28;;;;;;;7.50;2.05;;;;;;;13.51;76.77;97319.22;4982179;28;20033;-68
2022/09/21 08:53:00;;;;;;;9.35;2.10;;;;;;;13.52;74.78;97320.81;5022289;28;20125;-68
2022/09/21 08:55:26;;;;;;;5.63;1.80;;;;;;;13.68;74.23;97322.59;4980347;28;20129;-68
2022/09/21 08:57:51;;;;;;;5.57;1.85;;;;;;;13.83;74.20;97318.06;5012891;28;20180;-68
2022/09/21 09:00:18;;;;;;;4.30;1.65;;;;;;;14.31;73.09;97315.53;5001085;28;20093;-67
2022/09/21 09:02:58;;;;;;;5.50;1.70;;;;;;;13.62;75.21;97319.38;5013221;28;20042;-67
2022/09/21 09:06:00;;;;;;;3.15;1.60;;;;;;;13.68;70.91;97311.59;5013001;28;20426;-67
2022/09/21 09:08:58;;;;;;;5.80;1.50;;;;;;;13.89;73.20;97316.59;4953033;28;20047;-68
2022/09/21 09:11:59;;;;;;;6.50;1.75;;;;;;;14.27;71.51;97312.72;5019225;28;20308;-68
2022/09/21 09:14:39;;;;;;;4.22;1.48;;;;;;;14.07;72.94;97306.59;4981710;28;20510;-67
2022/09/21 09:17:43;;;;;;;5.00;1.40;;;;;;;13.85;72.87;97299.25;4979171;28;20045;-69
2022/09/21 09:20:33;;;;;;;6.07;1.73;;;;;;;13.93;73.02;97296.19;4935641;28;20043;-68
2022/09/21 09:23:01;;;;;;;3.22;1.60;;;;;;;14.32;70.82;97295.09;5012622;28;20395;-69
2022/09/21 09:25:35;;;;;;;10.10;1.23;;;;;;;14.38;71.28;97292.78;5011361;28;20064;-67
2022/09/21 09:28:14;;;;;;;7.20;1.30;;;;;;;14.72;63.80;97294.31;5011249;28;20128;-67
2022/09/21 09:30:41;;;;;;;3.88;1.10;;;;;;;14.33;66.10;97288.38;5011136;28;20038;-67
2022/09/21 09:33:27;;;;;;;5.38;1.52;;;;;;;14.78;65.16;97289.25;5001063;28;20045;-67
2022/09/21 09:36:05;;;;;;;4.18;1.30;;;;;;;14.77;61.20;97284.16;4986730;28;20038;-67
2022/09/21 09:38:56;;;;;;;6.47;1.30;;;;;;;14.94;63.80;97289.00;5003176;28;20459;-67
2022/09/21 09:41:41;;;;;;;3.63;1.17;;;;;;;14.75;62.24;97281.75;4992734;28;20077;-66
2022/09/21 09:44:21;;;;;;;3.03;1.00;;;;;;;14.70;64.46;97284.88;4984007;28;20088;-67
2022/09/21 09:47:00;;;;;;;4.88;1.20;;;;;;;15.21;58.74;97275.03;5006357;28;20038;-67
2022/09/21 09:49:48;;;;;;;2.53;1.27;;;;;;;14.37;60.07;97271.88;5037522;28;20067;-67
2022/09/21 09:52:15;;;;;;;3.85;1.60;;;;;;;14.52;59.83;97268.91;5005516;28;20038;-67
2022/09/21 09:54:49;;;;;;;4.82;1.23;;;;;;;14.57;60.64;97247.66;5006125;28;20038;-67
2022/09/21 09:57:27;;;;;;;4.35;1.20;;;;;;;14.48;60.56;97253.53;5020851;28;20063;-67
2022/09/21 09:59:57;;;;;;;2.13;1.00;;;;;;;15.10;60.54;97252.88;5007753;28;20061;-67
2022/09/21 10:02:23;;;;;;;;;;;;;;;15.00;58.39;97253.59;5022009;28;20061;-67
2022/09/21 10:05:00;;;;;;;4.85;1.08;;;;;;;15.95;56.06;97245.50;5026114;28;19912;-68
2022/09/21 10:07:42;;;;;;;5.25;1.20;;;;;;;16.41;57.96;97239.31;5011279;28;20509;-66
2022/09/21 10:10:25;;;;;;;5.90;1.17;;;;;;;15.51;55.18;97249.22;4999462;28;20057;-67
2022/09/21 10:12:52;;;;;;;4.70;1.20;;;;;;;15.20;54.35;97232.84;5031561;28;20071;-67
2022/09/21 10:15:19;;;;;;;9.35;1.40;;;;;;;15.34;53.51;97239.63;5006122;28;20053;-67
2022/09/21 10:17:47;;;;;;;4.00;0.90;;;;;;;15.51;54.06;97241.72;5034861;28;20046;-68
2022/09/21 10:20:17;;;;;;;6.50;1.15;;;;;;;15.62;56.05;97230.72;4992178;28;20044;-67
2022/09/21 10:22:53;;;;;;;2.70;0.68;;;;;;;15.47;49.20;97236.19;5015642;28;20459;-67
2022/09/21 10:25:19;;;;;;;3.28;0.90;;;;;;;16.02;51.03;97229.72;5006622;28;20045;-67
2022/09/21 10:27:49;;;;;;;4.70;1.25;;;;;;;15.83;55.14;97232.84;5006694;28;20050;-68
2022/09/21 10:30:29;;;;;;;2.85;0.90;;;;;;;15.80;55.16;97219.78;5000962;28;20313;-68
2022/09/21 10:32:56;;;;;;;6.15;1.60;;;;;;;15.34;51.50;97214.78;5009907;28;20049;-68
2022/09/21 10:35:23;;;;;;;9.05;1.42;;;;;;;16.17;50.93;97225.06;4971248;28;20569;-67
2022/09/21 10:38:08;;;;;;;2.13;1.08;;;;;;;15.06;53.61;97219.75;4989224;28;20396;-69
2022/09/21 10:40:38;;;;;;;4.80;1.45;;;;;;;15.34;52.94;97218.38;5003568;28;20054;-67
2022/09/21 10:43:04;;;;;;;6.72;1.42;;;;;;;15.83;54.04;97211.53;4982196;28;20044;-68
2022/09/21 10:45:33;;;;;;;4.68;1.20;;;;;;;15.81;54.64;97215.84;5003936;28;20128;-68
2022/09/21 10:48:05;;;;;;;3.47;1.07;;;;;;;16.29;55.07;97209.28;4986892;28;20092;-68
2022/09/21 10:50:30;;;;;;;4.97;1.23;;;;;;;15.70;51.84;97215.78;4985926;28;20046;-67
2022/09/21 10:53:09;;;;;;;1.58;1.10;;;;;;;15.33;54.85;97204.94;5014872;28;20100;-67
2022/09/21 10:55:50;;;;;;;4.45;1.27;;;;;;;15.39;55.36;97212.47;5005008;28;20546;-67
2022/09/21 10:58:16;;;;;;;3.97;1.55;;;;;;;15.67;57.76;97211.03;5021854;28;20045;-68
2022/09/21 11:00:47;;;;;;;6.32;1.60;;;;;;;15.31;57.72;97207.31;5025612;28;20095;-67
2022/09/21 11:03:30;;;;;;;5.45;1.40;;;;;;;15.37;56.91;97209.28;5006410;28;20040;-68
2022/09/21 11:06:03;;;;;;;3.38;1.33;;;;;;;15.15;55.89;97207.59;5007125;28;20072;-68
2022/09/21 11:09:02;;;;;;;2.88;1.00;;;;;;;15.19;53.85;97194.63;4988279;28;20530;-68
2022/09/21 11:11:52;;;;;;;6.57;1.70;;;;;;;15.11;56.64;97207.56;4982640;28;20570;-68
2022/09/21 11:14:33;;;;;;;7.72;1.80;;;;;;;15.68;58.44;97193.28;4986147;28;20177;-67
2022/09/21 11:17:18;;;;;;;4.40;1.42;;;;;;;15.35;60.30;97197.84;5010802;28;20065;-68
2022/09/21 11:20:01;;;;;;;3.08;1.10;;;;;;;15.70;61.74;97182.66;5009770;28;20053;-67
2022/09/21 11:22:35;;;;;;;4.90;1.33;;;;;;;15.86;58.79;97187.84;5008162;28;20095;-67
2022/09/21 11:25:31;;;;;;;2.50;1.10;;;;;;;15.76;60.09;97183.09;5003017;28;20044;-67
2022/09/21 11:28:21;;;;;;;2.38;0.95;;;;;;;15.76;59.87;97183.88;5004162;28;20042;-67
2022/09/21 11:30:55;;;;;;;5.15;1.67;;;;;;;15.67;55.82;97181.44;5002757;28;20574;-67
2022/09/21 11:33:36;;;;;;;1.65;1.02;;;;;;;15.32;56.07;97186.78;5014998;28;20418;-67
2022/09/21 11:36:12;;;;;;;4.07;1.00;;;;;;;15.56;58.02;97182.59;5013758;28;20446;-69
2022/09/21 11:38:56;;;;;;;4.55;1.15;;;;;;;15.54;57.71;97171.94;4987814;28;20038;-67
2022/09/21 11:41:50;;;;;;;4.28;0.90;;;;;;;15.88;54.90;97170.88;4998303;28;20937;-68
2022/09/21 11:44:47;;;;;;;3.03;1.02;;;;;;;16.15;54.69;97163.88;5000270;28;20101;-68
2022/09/21 11:47:49;;;;;;;5.10;0.90;;;;;;;15.78;54.87;97159.41;5026285;28;20042;-67
2022/09/21 11:50:46;;;;;;;5.68;2.17;;;;;;;16.07;52.98;97159.50;5002853;28;20064;-67
2022/09/21 11:53:18;;;;;;;2.22;0.90;;;;;;;15.98;52.57;97161.84;4999443;28;20099;-68
2022/09/21 11:56:19;;;;;;;1.13;0.70;;;;;;;15.71;53.29;97156.59;4987064;28;20120;-67
2022/09/21 11:59:02;;;;;;;10.05;1.05;;;;;;;15.47;54.96;97155.34;4938339;28;20125;-67